createdAt,value
2019-02-08T00:02:19.540Z,99.60
2019-02-08T00:04:50.263Z,99.60
2019-02-08T00:07:20.890Z,99.60
2019-02-08T00:09:51.803Z,99.60
2019-02-08T00:12:22.406Z,99.60
2019-02-08T00:14:53.014Z,99.60
2019-02-08T00:17:23.715Z,99.50
2019-02-08T00:19:54.549Z,99.50
2019-02-08T00:22:25.307Z,99.50
2019-02-08T00:24:56.064Z,99.50
2019-02-08T00:27:26.717Z,99.50
2019-02-08T00:29:57.373Z,99.50
2019-02-08T00:32:28.014Z,99.50
2019-02-08T00:34:58.926Z,99.40
2019-02-08T00:37:29.561Z,99.50
2019-02-08T00:40:00.205Z,99.50
2019-02-08T00:42:30.910Z,99.50
2019-02-08T00:45:01.498Z,99.50
2019-02-08T00:47:32.172Z,99.50
2019-02-08T00:50:02.877Z,99.50
2019-02-08T00:52:33.520Z,99.40
2019-02-08T00:55:04.415Z,99.40
2019-02-08T00:57:35.086Z,99.40
2019-02-08T01:00:08.765Z,99.50
2019-02-08T01:02:40.254Z,99.50
2019-02-08T01:05:13.955Z,99.50
2019-02-08T01:07:44.659Z,99.50
2019-02-08T01:10:28.285Z,99.60
2019-02-08T01:13:00.282Z,99.70
2019-02-08T01:15:31.585Z,99.70
2019-02-08T01:18:02.477Z,99.80
2019-02-08T01:20:33.136Z,99.80
2019-02-08T01:23:03.649Z,99.80
2019-02-08T01:25:34.193Z,99.80
2019-02-08T01:28:04.797Z,99.90
2019-02-08T01:30:36.135Z,99.90
2019-02-08T01:33:06.896Z,99.90
2019-02-08T01:35:37.765Z,99.90
2019-02-08T01:38:08.448Z,99.80
2019-02-08T01:40:39.749Z,99.90
2019-02-08T01:43:10.529Z,99.90
2019-02-08T01:45:41.236Z,99.90
2019-02-08T01:48:11.926Z,99.90
2019-02-08T01:50:42.608Z,99.90
2019-02-08T01:53:13.271Z,99.90
2019-02-08T01:55:43.973Z,99.90
2019-02-08T01:58:14.469Z,99.90
2019-02-08T02:00:46.095Z,99.90
2019-02-08T02:03:16.715Z,99.90
2019-02-08T02:05:47.384Z,99.90
2019-02-08T02:08:17.947Z,99.90
2019-02-08T02:10:48.646Z,99.90
2019-02-08T02:13:19.484Z,99.90
2019-02-08T02:15:52.972Z,99.90
2019-02-08T02:18:23.515Z,99.90
2019-02-08T02:20:54.042Z,99.90
2019-02-08T02:23:24.702Z,99.90
2019-02-08T02:25:57.300Z,99.90
2019-02-08T02:28:27.927Z,99.90
2019-02-08T02:30:58.563Z,99.90
2019-02-08T02:33:29.114Z,99.90
2019-02-08T02:35:59.846Z,99.90
2019-02-08T02:38:30.553Z,99.90
2019-02-08T02:41:01.135Z,99.90
2019-02-08T02:43:32.580Z,99.90
2019-02-08T02:46:03.207Z,99.90
2019-02-08T02:48:33.736Z,99.90
2019-02-08T02:51:04.393Z,99.90
2019-02-08T02:53:34.913Z,99.90
2019-02-08T02:56:05.764Z,99.90
2019-02-08T02:58:36.369Z,99.90
2019-02-08T03:01:07.111Z,99.90
2019-02-08T03:03:37.770Z,99.90
2019-02-08T03:06:08.428Z,99.90
2019-02-08T03:08:39.729Z,99.90
2019-02-08T03:11:10.671Z,99.90
2019-02-08T03:13:41.303Z,99.90
2019-02-08T03:16:11.981Z,99.90
2019-02-08T03:18:44.408Z,99.90
2019-02-08T03:21:15.043Z,99.90
2019-02-08T03:23:45.704Z,99.90
2019-02-08T03:26:16.308Z,99.90
2019-02-08T03:28:46.929Z,99.90
2019-02-08T03:31:17.587Z,99.90
2019-02-08T03:33:48.335Z,99.90
2019-02-08T03:36:18.947Z,99.90
2019-02-08T03:38:49.592Z,99.90
2019-02-08T03:41:20.270Z,99.90
2019-02-08T03:43:51.056Z,99.90
2019-02-08T03:46:21.877Z,99.90
2019-02-08T03:48:52.410Z,99.90
2019-02-08T03:51:23.137Z,99.90
2019-02-08T03:53:53.946Z,99.90
2019-02-08T03:56:24.865Z,99.90
2019-02-08T03:58:55.646Z,99.90
2019-02-08T04:01:26.442Z,99.90
2019-02-08T04:04:19.829Z,99.90
2019-02-08T04:06:53.605Z,99.90
2019-02-08T04:09:24.199Z,99.90
2019-02-08T04:11:55.116Z,99.90
2019-02-08T04:14:25.766Z,99.90
2019-02-08T04:16:56.632Z,99.90
2019-02-08T04:19:29.595Z,99.90
2019-02-08T04:22:00.282Z,99.90
2019-02-08T04:24:30.985Z,99.90
2019-02-08T04:27:01.690Z,99.90
2019-02-08T04:29:33.744Z,99.90
2019-02-08T04:32:04.440Z,99.90
2019-02-08T04:34:34.964Z,99.90
2019-02-08T04:37:05.797Z,99.90
2019-02-08T04:39:36.458Z,99.90
2019-02-08T04:42:07.506Z,99.90
2019-02-08T04:44:38.095Z,99.90
2019-02-08T04:47:08.739Z,99.90
2019-02-08T04:49:39.444Z,99.90
2019-02-08T04:52:10.083Z,99.90
2019-02-08T04:54:41.882Z,99.90
2019-02-08T04:57:13.846Z,99.90
2019-02-08T04:59:46.472Z,99.90
2019-02-08T05:02:56.262Z,99.90
2019-02-08T05:09:13.737Z,99.90
2019-02-08T05:11:44.325Z,99.90
2019-02-08T05:14:15.012Z,99.90
2019-02-08T05:16:53.060Z,99.90
2019-02-08T05:19:23.848Z,99.90
2019-02-08T05:21:54.525Z,99.90
2019-02-08T05:24:25.053Z,99.90
2019-02-08T05:26:55.763Z,99.90
2019-02-08T05:29:26.229Z,99.90
2019-02-08T05:31:56.744Z,99.90
2019-02-08T05:34:27.256Z,99.90
2019-02-08T05:36:57.836Z,99.90
2019-02-08T05:39:28.380Z,99.90
2019-02-08T05:41:58.957Z,99.90
2019-02-08T05:44:29.657Z,99.90
2019-02-08T05:47:02.853Z,99.90
2019-02-08T05:49:33.493Z,99.90
2019-02-08T05:52:04.174Z,99.90
2019-02-08T05:54:34.814Z,99.90
2019-02-08T05:57:05.832Z,99.90
2019-02-08T05:59:36.386Z,99.90
2019-02-08T06:02:07.158Z,99.90
2019-02-08T06:04:37.931Z,99.90
2019-02-08T06:07:08.676Z,99.90
2019-02-08T06:09:39.302Z,99.90
2019-02-08T06:12:10.060Z,99.90
2019-02-08T06:14:40.732Z,99.90
2019-02-08T06:17:11.350Z,99.90
2019-02-08T06:19:42.049Z,99.90
2019-02-08T06:22:18.687Z,99.90
2019-02-08T06:24:49.307Z,99.90
2019-02-08T06:27:19.841Z,99.90
2019-02-08T06:29:50.479Z,99.90
2019-02-08T06:32:21.174Z,99.90
2019-02-08T06:34:51.836Z,99.90
2019-02-08T06:37:22.449Z,99.90
2019-02-08T06:39:53.114Z,99.90
2019-02-08T06:42:23.757Z,99.90
2019-02-08T06:44:54.427Z,99.90
2019-02-08T06:47:25.003Z,99.90
2019-02-08T06:49:55.740Z,99.90
2019-02-08T06:52:26.448Z,99.90
2019-02-08T06:54:57.149Z,99.90
2019-02-08T06:57:52.768Z,99.90
2019-02-08T07:00:34.422Z,99.90
2019-02-08T07:03:27.150Z,99.90
2019-02-08T07:06:05.186Z,99.90
2019-02-08T07:09:06.720Z,99.90
2019-02-08T07:11:55.683Z,99.90
2019-02-08T07:14:33.952Z,99.90
2019-02-08T07:17:28.432Z,99.90
2019-02-08T07:20:08.042Z,99.90
2019-02-08T07:23:10.657Z,99.90
2019-02-08T07:25:58.865Z,99.90
2019-02-08T07:28:51.570Z,99.90
2019-02-08T07:31:49.973Z,99.90
2019-02-08T07:34:48.365Z,99.90
2019-02-08T07:37:35.127Z,99.90
2019-02-08T07:40:26.311Z,99.90
2019-02-08T07:43:10.673Z,99.90
2019-02-08T07:45:54.984Z,99.90
2019-02-08T07:48:37.336Z,99.90
2019-02-08T07:51:24.611Z,99.90
2019-02-08T07:54:29.885Z,99.90
2019-02-08T07:57:20.547Z,99.90
2019-02-08T08:00:13.784Z,99.90
2019-02-08T08:03:09.796Z,99.90
2019-02-08T08:05:59.355Z,99.90
2019-02-08T08:09:04.623Z,99.90
2019-02-08T08:11:47.323Z,99.90
2019-02-08T08:14:37.107Z,99.90
2019-02-08T08:17:32.881Z,99.90
2019-02-08T08:20:42.575Z,99.90
2019-02-08T08:23:28.133Z,99.90
2019-02-08T08:26:31.438Z,99.90
2019-02-08T08:29:23.592Z,99.90
2019-02-08T08:32:20.246Z,99.90
2019-02-08T08:36:04.170Z,99.90
2019-02-08T08:40:04.976Z,99.90
2019-02-08T08:43:42.907Z,99.90
2019-02-08T08:47:07.219Z,99.90
2019-02-08T08:50:26.359Z,99.90
2019-02-08T08:53:20.907Z,99.90
2019-02-08T08:56:34.128Z,99.90
2019-02-08T08:59:48.128Z,99.90
2019-02-08T09:03:13.551Z,99.90
2019-02-08T09:06:49.018Z,99.90
2019-02-08T09:09:52.107Z,99.90
2019-02-08T09:13:15.167Z,99.90
2019-02-08T09:16:29.203Z,99.90
2019-02-08T09:20:01.639Z,99.90
2019-02-08T09:23:23.846Z,99.90
2019-02-08T09:26:25.874Z,99.90
2019-02-08T09:30:04.560Z,99.90
2019-02-08T09:33:42.017Z,99.90
2019-02-08T09:37:32.413Z,99.90
2019-02-08T09:41:10.663Z,99.90
2019-02-08T09:44:29.532Z,99.90
2019-02-08T09:48:23.631Z,99.90
2019-02-08T09:51:57.575Z,99.90
2019-02-08T09:55:39.222Z,99.90
2019-02-08T09:58:58.004Z,99.90
2019-02-08T10:02:39.771Z,99.90
2019-02-08T10:05:53.193Z,99.90
2019-02-08T10:09:29.460Z,99.90
2019-02-08T10:12:55.776Z,99.90
2019-02-08T10:16:24.487Z,99.90
2019-02-08T10:20:09.616Z,99.90
2019-02-08T10:23:49.250Z,99.90
2019-02-08T10:27:39.963Z,99.90
2019-02-08T10:31:19.072Z,99.90
2019-02-08T10:34:39.256Z,99.90
2019-02-08T10:38:09.620Z,99.90
2019-02-08T10:41:35.205Z,99.90
2019-02-08T10:44:40.952Z,99.90
2019-02-08T10:47:58.640Z,99.90
2019-02-08T10:51:23.389Z,99.90
2019-02-08T10:55:16.707Z,99.90
2019-02-08T10:58:50.464Z,99.90
2019-02-08T11:02:33.075Z,99.90
2019-02-08T11:06:12.233Z,99.90
2019-02-08T11:09:33.956Z,99.90
2019-02-08T11:13:04.367Z,99.90
2019-02-08T11:16:44.515Z,99.90
2019-02-08T11:19:22.556Z,99.90
2019-02-08T11:21:56.563Z,99.90
2019-02-08T11:24:32.427Z,99.90
2019-02-08T11:27:10.586Z,99.90
2019-02-08T11:29:46.344Z,99.90
2019-02-08T11:32:18.258Z,99.90
2019-02-08T11:34:48.895Z,99.90
2019-02-08T11:37:20.315Z,99.90
2019-02-08T11:39:51.138Z,99.90
2019-02-08T11:42:22.259Z,99.90
2019-02-08T11:44:52.966Z,99.90
2019-02-08T11:47:23.715Z,99.90
2019-02-08T11:49:54.415Z,99.90
2019-02-08T11:52:27.001Z,99.90
2019-02-08T11:54:57.583Z,99.90
2019-02-08T11:57:28.280Z,99.90
2019-02-08T11:59:58.861Z,99.90
2019-02-08T12:02:29.435Z,99.90
2019-02-08T12:05:00.047Z,99.90
2019-02-08T12:07:30.692Z,99.90
2019-02-08T12:10:02.333Z,99.90
2019-02-08T12:12:32.929Z,99.90
2019-02-08T12:15:03.649Z,99.90
2019-02-08T12:17:34.349Z,99.90
2019-02-08T12:20:06.805Z,99.90
2019-02-08T12:22:37.525Z,99.90
2019-02-08T12:25:08.872Z,99.90
2019-02-08T12:27:39.464Z,99.90
2019-02-08T12:30:20.487Z,99.90
2019-02-08T12:32:53.270Z,99.90
2019-02-08T12:35:29.722Z,99.90
2019-02-08T12:38:00.410Z,99.90
2019-02-08T12:40:30.934Z,99.90
2019-02-08T12:43:01.508Z,99.90
2019-02-08T12:45:32.246Z,99.90
2019-02-08T12:48:03.038Z,99.90
2019-02-08T12:50:33.703Z,99.90
2019-02-08T12:53:04.618Z,99.90
2019-02-08T12:55:35.434Z,99.90
2019-02-08T12:58:06.047Z,99.90
2019-02-08T13:00:36.656Z,99.90
2019-02-08T13:03:07.164Z,99.90
2019-02-08T13:05:37.794Z,99.90
2019-02-08T13:08:08.507Z,99.90
2019-02-08T13:10:39.081Z,99.90
2019-02-08T13:13:09.753Z,99.90
2019-02-08T13:15:40.319Z,99.80
2019-02-08T13:18:13.616Z,99.80
2019-02-08T13:20:44.324Z,99.90
2019-02-08T13:23:14.818Z,99.90
2019-02-08T13:25:45.448Z,99.90
2019-02-08T13:28:19.019Z,99.90
2019-02-08T13:30:49.656Z,99.90
2019-02-08T13:33:20.215Z,99.90
2019-02-08T13:35:50.810Z,99.90
2019-02-08T13:38:21.888Z,99.90
2019-02-08T13:40:52.703Z,99.90
2019-02-08T13:43:23.474Z,99.90
2019-02-08T13:45:54.134Z,99.90
2019-02-08T13:48:24.876Z,99.90
2019-02-08T13:50:55.679Z,99.90
2019-02-08T13:53:26.370Z,99.90
2019-02-08T13:55:57.012Z,99.90
2019-02-08T13:58:28.240Z,99.90
2019-02-08T14:00:58.858Z,99.70
2019-02-08T14:03:29.466Z,99.70
2019-02-08T14:06:04.364Z,99.80
2019-02-08T14:08:34.999Z,99.90
2019-02-08T14:11:06.108Z,99.80
2019-02-08T14:13:40.604Z,99.80
2019-02-08T14:16:12.137Z,99.70
2019-02-08T14:18:45.601Z,99.70
2019-02-08T14:21:16.664Z,99.40
2019-02-08T14:23:47.400Z,99.50
2019-02-08T14:26:18.221Z,99.40
2019-02-08T14:28:48.838Z,99.30
2019-02-08T14:31:19.616Z,99.00
2019-02-08T14:33:50.244Z,99.10
2019-02-08T14:36:21.058Z,99.00
2019-02-08T14:38:55.446Z,99.00
2019-02-08T14:41:26.049Z,99.20
2019-02-08T14:43:59.108Z,99.20
2019-02-08T14:46:29.764Z,98.80
2019-02-08T14:49:00.415Z,98.80
2019-02-08T14:51:31.979Z,98.80
2019-02-08T14:54:02.809Z,98.80
2019-02-08T16:11:02.192Z,98.70
2019-02-08T16:13:32.812Z,98.60
2019-02-08T16:16:03.642Z,98.60
2019-02-08T16:18:34.296Z,98.70
2019-02-08T16:21:05.055Z,98.70
2019-02-08T16:23:35.659Z,98.80
2019-02-08T16:26:07.110Z,98.90
2019-02-08T16:28:37.776Z,98.90
2019-02-08T16:31:09.321Z,98.90
2019-02-08T16:33:40.046Z,99.00
2019-02-08T16:36:10.878Z,98.80
2019-02-08T16:38:41.564Z,98.90
2019-02-08T16:41:12.355Z,98.80
2019-02-08T16:43:43.811Z,98.80
2019-02-08T16:46:14.525Z,98.80
2019-02-08T16:48:45.120Z,98.70
2019-02-08T16:51:18.388Z,98.80
2019-02-08T16:53:53.584Z,98.80
2019-02-08T16:56:21.375Z,98.80
2019-02-08T16:58:52.088Z,98.80
2019-02-08T17:01:24.947Z,98.80
2019-02-08T17:03:55.665Z,98.80
2019-02-08T17:06:26.381Z,98.80
2019-02-08T17:08:56.982Z,98.80
2019-02-08T17:11:27.619Z,98.70
2019-02-08T17:14:01.340Z,98.80
2019-02-08T17:16:31.892Z,98.60
2019-02-08T17:19:02.508Z,98.70
2019-02-08T17:21:33.155Z,98.70
2019-02-08T17:24:03.795Z,98.60
2019-02-08T17:26:34.475Z,98.60
2019-02-08T17:29:05.071Z,98.60
2019-02-08T17:31:35.772Z,98.60
2019-02-08T17:34:06.696Z,99.00
2019-02-08T17:36:37.314Z,98.70
2019-02-08T17:39:09.327Z,98.60
2019-02-08T17:41:39.924Z,98.70
2019-02-08T17:44:10.632Z,98.60
2019-02-08T17:46:41.211Z,98.70
2019-02-08T17:49:11.874Z,98.60
2019-02-08T17:51:42.488Z,98.60
2019-02-08T17:54:13.072Z,98.60
2019-02-08T17:56:45.014Z,98.60
2019-02-08T17:59:15.735Z,98.60
2019-02-08T18:01:47.886Z,98.60
2019-02-08T18:04:18.504Z,98.60
2019-02-08T18:06:49.068Z,98.70
2019-02-08T18:09:19.717Z,98.70
2019-02-08T18:11:50.402Z,98.60
2019-02-08T18:14:23.044Z,98.60
2019-02-08T18:16:53.591Z,98.60
2019-02-08T18:19:24.321Z,98.50
2019-02-08T18:21:57.993Z,98.50
2019-02-08T18:24:28.630Z,98.80
2019-02-08T18:26:59.225Z,98.40
2019-02-08T18:29:29.831Z,98.50
2019-02-08T18:32:00.529Z,98.50
2019-02-08T18:34:31.141Z,98.60
2019-02-08T18:37:01.842Z,98.50
2019-02-08T18:39:32.422Z,98.40
2019-02-08T18:42:03.020Z,98.50
2019-02-08T18:44:33.610Z,98.40
2019-02-08T18:47:04.185Z,98.40
2019-02-08T18:49:34.815Z,98.50
2019-02-08T18:52:05.400Z,98.30
2019-02-08T18:54:36.026Z,98.30
2019-02-08T18:57:06.709Z,98.40
2019-02-08T18:59:37.293Z,98.30
2019-02-08T19:02:08.274Z,98.20
2019-02-08T19:04:40.938Z,98.20
2019-02-08T19:07:11.612Z,98.20
2019-02-08T19:09:42.180Z,98.20
2019-02-08T19:12:12.795Z,98.30
2019-02-08T19:14:43.396Z,98.30
2019-02-08T19:17:14.030Z,98.20
2019-02-08T19:19:44.648Z,98.10
2019-02-08T19:22:15.215Z,98.00
2019-02-08T19:24:45.860Z,98.20
2019-02-08T19:27:16.409Z,98.20
2019-02-08T19:29:47.016Z,98.50
2019-02-08T19:32:17.673Z,98.10
2019-02-08T19:34:48.266Z,98.10
2019-02-08T19:37:18.895Z,98.30
2019-02-08T19:39:49.481Z,98.20
2019-02-08T19:42:20.070Z,98.00
2019-02-08T19:44:50.688Z,98.00
2019-02-08T19:47:21.565Z,98.10
2019-02-08T19:49:53.420Z,98.10
2019-02-08T19:52:24.138Z,97.90
2019-02-08T19:54:54.965Z,98.00
2019-02-08T19:57:25.715Z,98.00
2019-02-08T19:59:56.336Z,97.90
2019-02-08T20:02:27.093Z,98.00
2019-02-08T20:04:57.687Z,97.90
2019-02-08T20:07:28.330Z,97.90
2019-02-08T20:09:58.954Z,97.90
2019-02-08T20:12:29.534Z,98.00
2019-02-08T20:15:00.477Z,98.00
2019-02-08T20:17:31.091Z,98.00
2019-02-08T20:20:01.807Z,98.00
2019-02-08T20:22:32.378Z,98.10
2019-02-08T20:25:03.627Z,98.00
2019-02-08T20:27:34.283Z,97.90
2019-02-08T20:30:07.425Z,97.90
2019-02-08T20:32:38.173Z,97.80
2019-02-08T20:35:13.816Z,97.90
2019-02-08T20:37:44.407Z,97.80
2019-02-08T20:40:21.282Z,97.80
2019-02-08T20:42:52.083Z,97.70
2019-02-08T20:45:26.210Z,97.70
2019-02-08T20:47:58.078Z,97.70
2019-02-08T20:50:28.945Z,97.70
2019-02-08T20:53:00.209Z,97.60
2019-02-08T20:55:31.335Z,97.60
2019-02-08T20:58:02.162Z,97.50
2019-02-08T21:00:36.870Z,97.80
2019-02-08T21:03:15.872Z,97.30
2019-02-08T21:05:48.385Z,97.40
2019-02-08T21:08:22.037Z,97.40
2019-02-08T21:10:54.697Z,97.20
2019-02-08T21:13:25.474Z,97.40
2019-02-08T21:15:56.328Z,97.10
2019-02-08T21:18:26.997Z,96.90
2019-02-08T21:21:00.665Z,97.10
2019-02-08T21:23:33.681Z,97.10
2019-02-08T21:26:05.015Z,97.20
2019-02-08T21:28:38.191Z,97.10
2019-02-08T21:31:08.930Z,96.90
2019-02-08T21:33:39.577Z,96.90
2019-02-08T21:36:10.383Z,97.10
2019-02-08T21:38:41.049Z,97.00
2019-02-08T21:41:11.664Z,97.10
2019-02-08T21:43:42.310Z,97.10
2019-02-08T21:46:14.772Z,97.00
2019-02-08T21:48:45.431Z,97.10
2019-02-08T21:51:30.859Z,97.00
2019-02-08T21:54:01.552Z,97.10
2019-02-08T21:56:32.192Z,97.00
2019-02-08T21:59:06.260Z,97.20
2019-02-08T22:01:35.228Z,96.90
2019-02-08T22:04:06.284Z,96.90
2019-02-08T22:06:37.022Z,96.90
2019-02-08T22:09:09.805Z,97.00
2019-02-08T22:11:40.507Z,97.00
2019-02-08T22:14:14.277Z,96.90
2019-02-08T22:16:44.912Z,96.90
2019-02-08T22:19:15.806Z,96.80
2019-02-08T22:21:46.608Z,97.10
2019-02-08T22:24:17.395Z,97.00
2019-02-08T22:26:48.217Z,97.10
2019-02-08T22:29:18.841Z,97.20
2019-02-08T22:31:49.492Z,97.30
2019-02-08T22:34:20.089Z,97.50
2019-02-08T22:36:52.495Z,97.90
2019-02-08T22:39:23.070Z,98.20
2019-02-08T22:41:55.964Z,98.20
2019-02-08T22:44:26.601Z,98.40
2019-02-08T22:46:57.185Z,98.60
2019-02-08T22:49:27.864Z,98.80
2019-02-08T22:51:58.460Z,98.90
2019-02-08T22:54:38.081Z,99.10
2019-02-08T22:57:08.970Z,99.30
2019-02-08T22:59:39.882Z,99.40
2019-02-08T23:02:12.022Z,99.60
2019-02-08T23:04:42.972Z,99.90
2019-02-08T23:07:13.652Z,99.90
2019-02-08T23:09:44.320Z,99.90
2019-02-08T23:12:32.294Z,99.90
2019-02-08T23:15:02.920Z,99.90
2019-02-08T23:17:33.500Z,99.90
2019-02-08T23:20:06.989Z,99.90
2019-02-08T23:22:37.692Z,99.90
2019-02-08T23:25:08.813Z,99.90
2019-02-08T23:27:39.498Z,99.90
2019-02-08T23:30:11.642Z,99.90
2019-02-08T23:32:42.241Z,99.90
2019-02-08T23:35:13.202Z,99.90
2019-02-08T23:37:45.252Z,99.90
2019-02-08T23:40:16.071Z,99.90
2019-02-08T23:42:47.178Z,99.90
2019-02-08T23:45:55.454Z,99.90
2019-02-08T23:48:43.696Z,99.90
2019-02-08T23:51:40.579Z,99.90
2019-02-08T23:54:11.249Z,99.90
2019-02-08T23:56:42.113Z,99.90
2019-02-08T23:59:12.840Z,99.90
